createdAt,value
2019-05-10T00:01:28.447Z,63.90
2019-05-10T00:03:54.590Z,65.72
2019-05-10T00:06:20.793Z,65.65
2019-05-10T00:08:47.113Z,63.55
2019-05-10T00:11:04.609Z,58.52
2019-05-10T00:13:16.274Z,59.23
2019-05-10T00:15:26.302Z,60.45
2019-05-10T00:17:36.333Z,116.25
2019-05-10T00:19:44.729Z,88.62
2019-05-10T00:21:52.924Z,90.55
2019-05-10T00:24:00.919Z,73.47
2019-05-10T00:26:09.373Z,70.67
2019-05-10T00:28:17.728Z,70.97
2019-05-10T00:30:25.811Z,62.93
2019-05-10T00:32:34.265Z,64.62
2019-05-10T00:34:42.223Z,63.02
2019-05-10T00:36:50.317Z,59.55
2019-05-10T00:38:58.514Z,59.53
2019-05-10T00:41:06.880Z,61.68
2019-05-10T00:43:15.166Z,60.80
2019-05-10T00:45:23.355Z,62.15
2019-05-10T00:47:31.543Z,65.03
2019-05-10T00:49:39.594Z,61.23
2019-05-10T00:51:48.001Z,71.45
2019-05-10T00:53:56.522Z,72.20
2019-05-10T00:56:04.957Z,68.22
2019-05-10T00:58:13.361Z,68.25
2019-05-10T01:00:21.813Z,61.80
2019-05-10T01:02:30.219Z,67.08
2019-05-10T01:04:38.425Z,62.38
2019-05-10T01:06:46.493Z,67.55
2019-05-10T01:08:54.571Z,63.13
2019-05-10T01:11:02.989Z,59.95
2019-05-10T01:13:11.443Z,68.28
2019-05-10T01:15:19.716Z,91.35
2019-05-10T01:17:28.037Z,59.90
2019-05-10T01:19:36.225Z,64.03
2019-05-10T01:21:44.312Z,64.87
2019-05-10T01:23:52.427Z,70.05
2019-05-10T01:26:00.614Z,66.10
2019-05-10T01:28:08.806Z,75.35
2019-05-10T01:30:17.572Z,83.55
2019-05-10T01:32:25.503Z,81.57
2019-05-10T01:34:33.693Z,71.00
2019-05-10T01:36:41.806Z,74.30
2019-05-10T01:38:49.989Z,73.52
2019-05-10T01:40:57.947Z,69.82
2019-05-10T01:43:06.403Z,69.10
2019-05-10T01:45:15.394Z,65.80
2019-05-10T01:47:23.755Z,66.60
2019-05-10T01:49:31.985Z,62.93
2019-05-10T01:51:40.366Z,60.95
2019-05-10T01:53:50.294Z,64.50
2019-05-10T01:55:58.423Z,71.33
2019-05-10T01:58:06.707Z,66.25
2019-05-10T02:00:15.950Z,73.15
2019-05-10T02:02:24.169Z,66.05
2019-05-10T02:04:32.307Z,58.98
2019-05-10T02:06:40.691Z,60.65
2019-05-10T02:08:48.593Z,60.75
2019-05-10T02:10:56.876Z,63.17
2019-05-10T02:13:05.505Z,68.65
2019-05-10T02:15:14.334Z,59.73
2019-05-10T02:17:22.221Z,68.20
2019-05-10T02:19:30.670Z,63.45
2019-05-10T02:21:38.971Z,61.48
2019-05-10T02:23:47.051Z,60.75
2019-05-10T02:26:08.318Z,65.30
2019-05-10T02:28:05.587Z,65.62
2019-05-10T02:30:14.990Z,60.15
2019-05-10T02:32:23.171Z,59.42
2019-05-10T02:34:31.613Z,64.35
2019-05-10T02:36:40.491Z,86.30
2019-05-10T02:38:48.393Z,68.42
2019-05-10T02:40:56.971Z,70.97
2019-05-10T02:43:05.352Z,62.62
2019-05-10T02:45:14.073Z,61.02
2019-05-10T02:47:22.486Z,61.28
2019-05-10T02:49:30.963Z,63.15
2019-05-10T02:51:39.313Z,60.65
2019-05-10T02:53:47.822Z,62.15
2019-05-10T02:55:57.358Z,78.20
2019-05-10T02:58:05.781Z,59.00
2019-05-10T03:00:16.205Z,57.38
2019-05-10T03:02:25.524Z,58.83
2019-05-10T03:04:36.963Z,59.83
2019-05-10T03:06:46.745Z,59.18
2019-05-10T03:08:55.669Z,61.58
2019-05-10T03:11:04.071Z,59.38
2019-05-10T03:13:16.053Z,59.73
2019-05-10T03:15:25.037Z,57.20
2019-05-10T03:17:33.395Z,60.33
2019-05-10T03:19:43.338Z,63.75
2019-05-10T03:21:59.202Z,63.17
2019-05-10T03:24:07.571Z,59.05
2019-05-10T03:26:16.070Z,62.20
2019-05-10T03:28:24.529Z,64.30
2019-05-10T03:30:32.946Z,63.75
2019-05-10T03:32:41.178Z,60.85
2019-05-10T03:34:49.147Z,64.03
2019-05-10T03:36:57.949Z,62.73
2019-05-10T03:39:07.501Z,63.83
2019-05-10T03:41:15.817Z,74.22
2019-05-10T03:43:24.391Z,70.78
2019-05-10T03:45:32.786Z,101.50
2019-05-10T03:47:41.077Z,74.17
2019-05-10T03:49:49.501Z,74.17
2019-05-10T03:51:57.804Z,67.03
2019-05-10T03:54:06.355Z,62.75
2019-05-10T03:56:14.634Z,60.25
2019-05-10T03:58:22.924Z,61.73
2019-05-10T04:00:32.205Z,64.30
2019-05-10T04:02:40.596Z,63.38
2019-05-10T04:04:48.577Z,69.55
2019-05-10T04:06:56.772Z,65.22
2019-05-10T04:09:07.185Z,68.72
2019-05-10T04:11:15.345Z,101.55
2019-05-10T04:13:23.340Z,80.72
2019-05-10T04:15:31.730Z,73.25
2019-05-10T04:17:40.058Z,67.70
2019-05-10T04:19:49.344Z,68.07
2019-05-10T04:21:57.640Z,69.67
2019-05-10T04:24:05.721Z,66.00
2019-05-10T04:26:13.708Z,67.87
2019-05-10T04:28:21.886Z,65.78
2019-05-10T04:30:31.762Z,65.57
2019-05-10T04:32:40.515Z,65.55
2019-05-10T04:34:48.697Z,71.17
2019-05-10T04:36:57.105Z,62.20
2019-05-10T04:39:07.493Z,61.75
2019-05-10T04:41:15.847Z,64.20
2019-05-10T04:43:24.144Z,59.88
2019-05-10T04:45:32.664Z,59.08
2019-05-10T04:47:41.043Z,59.08
2019-05-10T04:49:49.268Z,59.20
2019-05-10T04:51:57.542Z,60.00
2019-05-10T04:54:06.104Z,56.15
2019-05-10T04:56:14.515Z,58.13
2019-05-10T04:58:22.503Z,54.90
2019-05-10T05:00:30.855Z,51.15
2019-05-10T05:02:39.169Z,49.98
2019-05-10T05:04:47.256Z,54.42
2019-05-10T05:06:56.127Z,55.30
2019-05-10T05:09:06.840Z,52.03
2019-05-10T05:11:15.132Z,54.48
2019-05-10T05:13:23.316Z,49.60
2019-05-10T05:15:31.624Z,50.67
2019-05-10T05:17:40.470Z,50.90
2019-05-10T05:19:48.869Z,50.10
2019-05-10T05:21:57.268Z,52.03
2019-05-10T05:24:05.654Z,51.65
2019-05-10T05:26:13.910Z,50.90
2019-05-10T05:28:23.265Z,51.70
2019-05-10T05:30:32.296Z,39.25
2019-05-10T05:32:44.454Z,39.10
2019-05-10T05:34:50.274Z,48.90
2019-05-10T05:36:58.467Z,49.50
2019-05-10T05:39:08.724Z,49.10
2019-05-10T05:41:17.026Z,49.10
2019-05-10T05:43:25.310Z,49.35
2019-05-10T05:45:35.323Z,48.13
2019-05-10T05:47:44.802Z,50.17
2019-05-10T05:49:53.350Z,49.25
2019-05-10T05:52:01.494Z,49.25
2019-05-10T05:54:15.053Z,48.73
2019-05-10T05:56:19.965Z,50.38
2019-05-10T05:58:29.324Z,53.05
2019-05-10T06:00:44.810Z,50.08
2019-05-10T06:02:47.730Z,47.17
2019-05-10T06:04:56.017Z,48.20
2019-05-10T06:07:04.137Z,48.65
2019-05-10T06:09:12.531Z,51.53
2019-05-10T06:11:20.816Z,51.02
2019-05-10T06:13:30.699Z,51.48
2019-05-10T06:15:39.496Z,51.90
2019-05-10T06:17:56.104Z,51.92
2019-05-10T06:20:00.876Z,49.67
2019-05-10T06:22:07.896Z,50.80
2019-05-10T06:24:16.050Z,53.45
2019-05-10T06:26:28.618Z,50.23
2019-05-10T06:28:57.333Z,50.10
2019-05-10T06:30:45.589Z,51.02
2019-05-10T06:33:00.965Z,49.23
2019-05-10T06:35:08.045Z,50.15
2019-05-10T06:37:16.131Z,53.65
2019-05-10T06:39:24.581Z,52.65
2019-05-10T06:41:32.804Z,52.70
2019-05-10T06:43:45.822Z,51.13
2019-05-10T06:45:52.581Z,51.70
2019-05-10T06:48:01.158Z,51.20
2019-05-10T06:50:10.372Z,52.95
2019-05-10T06:52:21.902Z,49.60
2019-05-10T06:54:28.566Z,52.43
2019-05-10T06:56:37.057Z,48.55
2019-05-10T06:58:45.247Z,45.95
2019-05-10T07:00:53.411Z,49.83
2019-05-10T07:03:01.702Z,46.25
2019-05-10T07:05:10.859Z,44.30
2019-05-10T07:07:33.189Z,47.98
2019-05-10T07:09:59.333Z,48.38
2019-05-10T07:11:40.630Z,45.70
2019-05-10T07:13:52.865Z,43.87
2019-05-10T07:15:58.783Z,45.10
2019-05-10T07:18:07.704Z,44.30
2019-05-10T07:20:16.293Z,45.08
2019-05-10T07:22:26.994Z,46.18
2019-05-10T07:24:34.489Z,48.78
2019-05-10T07:26:42.481Z,49.75
2019-05-10T07:28:51.783Z,48.23
2019-05-10T07:31:00.921Z,46.25
2019-05-10T07:33:10.205Z,44.53
2019-05-10T07:35:19.206Z,44.98
2019-05-10T07:37:27.687Z,41.92
2019-05-10T07:39:35.980Z,45.33
2019-05-10T07:41:44.497Z,44.63
2019-05-10T07:43:52.979Z,43.25
2019-05-10T07:46:06.559Z,41.20
2019-05-10T07:48:11.071Z,38.55
2019-05-10T07:50:20.160Z,37.67
2019-05-10T07:52:29.534Z,33.88
2019-05-10T07:54:45.187Z,35.70
2019-05-10T07:56:47.931Z,36.03
2019-05-10T07:58:56.415Z,36.30
2019-05-10T08:01:04.417Z,34.25
2019-05-10T08:03:16.804Z,32.75
2019-05-10T08:05:22.723Z,33.90
2019-05-10T08:07:31.021Z,34.48
2019-05-10T08:09:44.835Z,31.97
2019-05-10T08:11:54.131Z,35.58
2019-05-10T08:14:06.329Z,30.95
2019-05-10T08:16:11.780Z,34.58
2019-05-10T08:18:23.482Z,33.28
2019-05-10T08:20:45.792Z,32.38
2019-05-10T08:22:45.930Z,31.05
2019-05-10T08:24:55.891Z,33.02
2019-05-10T08:27:08.064Z,30.85
2019-05-10T08:29:15.157Z,33.83
2019-05-10T08:31:23.002Z,30.48
2019-05-10T08:33:32.813Z,31.80
2019-05-10T08:35:45.940Z,28.77
2019-05-10T08:37:53.006Z,25.92
2019-05-10T08:40:03.130Z,27.90
2019-05-10T08:42:32.120Z,27.48
2019-05-10T08:44:23.968Z,26.25
2019-05-10T08:46:40.597Z,30.60
2019-05-10T08:48:46.139Z,31.95
2019-05-10T08:50:57.054Z,31.12
2019-05-10T08:53:10.552Z,31.95
2019-05-10T08:55:12.638Z,28.75
2019-05-10T08:57:22.276Z,27.75
2019-05-10T08:59:30.983Z,28.50
2019-05-10T09:01:46.487Z,31.20
2019-05-10T09:03:55.098Z,32.28
2019-05-10T09:06:03.534Z,31.23
2019-05-10T09:08:13.547Z,28.75
2019-05-10T09:10:19.456Z,28.15
2019-05-10T09:12:29.545Z,28.35
2019-05-10T09:14:37.898Z,25.40
2019-05-10T09:16:56.307Z,27.50
2019-05-10T09:18:56.286Z,29.55
2019-05-10T09:21:08.873Z,27.20
2019-05-10T09:23:19.904Z,25.90
2019-05-10T09:25:28.786Z,26.25
2019-05-10T09:27:34.635Z,26.12
2019-05-10T09:29:43.170Z,26.60
2019-05-10T09:31:53.466Z,24.95
2019-05-10T09:34:02.422Z,27.75
2019-05-10T09:36:12.427Z,27.58
2019-05-10T09:38:22.156Z,27.35
2019-05-10T09:40:32.689Z,26.37
2019-05-10T09:42:43.517Z,26.97
2019-05-10T09:44:52.704Z,24.23
2019-05-10T09:47:01.938Z,23.75
2019-05-10T09:49:15.728Z,20.77
2019-05-10T09:51:27.947Z,21.90
2019-05-10T09:53:30.992Z,25.90
2019-05-10T09:55:39.287Z,27.05
2019-05-10T09:57:48.089Z,25.92
2019-05-10T09:59:57.262Z,30.17
2019-05-10T10:02:14.628Z,28.80
2019-05-10T10:04:17.826Z,31.33
2019-05-10T10:06:29.559Z,30.48
2019-05-10T10:08:38.424Z,25.05
2019-05-10T10:10:47.757Z,27.42
2019-05-10T10:12:58.370Z,33.92
2019-05-10T10:15:09.564Z,32.73
2019-05-10T10:17:20.420Z,35.30
2019-05-10T10:19:27.779Z,36.77
2019-05-10T10:21:38.933Z,28.52
2019-05-10T10:23:46.531Z,28.05
2019-05-10T10:25:54.449Z,29.60
2019-05-10T10:28:02.344Z,29.30
2019-05-10T10:30:17.613Z,27.65
2019-05-10T10:32:24.668Z,25.52
2019-05-10T10:34:32.505Z,24.12
2019-05-10T10:36:43.952Z,24.57
2019-05-10T10:38:49.949Z,30.17
2019-05-10T10:40:58.028Z,28.52
2019-05-10T10:43:07.440Z,23.60
2019-05-10T10:45:17.361Z,23.27
2019-05-10T10:47:28.301Z,15.75
2019-05-10T10:49:37.829Z,12.82
2019-05-10T10:51:47.245Z,14.50
2019-05-10T10:53:58.042Z,15.20
2019-05-10T10:56:07.475Z,15.55
2019-05-10T10:58:14.995Z,14.63
2019-05-10T11:00:33.537Z,14.10
2019-05-10T11:02:41.945Z,13.40
2019-05-10T11:04:51.053Z,14.53
2019-05-10T11:07:09.853Z,12.30
2019-05-10T11:09:09.694Z,12.10
2019-05-10T11:11:17.517Z,12.65
2019-05-10T11:13:41.598Z,11.95
2019-05-10T11:15:36.474Z,13.90
2019-05-10T11:17:44.842Z,12.65
2019-05-10T11:19:52.735Z,10.25
2019-05-10T11:22:04.363Z,11.48
2019-05-10T11:24:18.557Z,10.45
2019-05-10T11:26:21.741Z,11.18
2019-05-10T11:28:38.479Z,11.00
2019-05-10T11:30:39.309Z,11.18
2019-05-10T11:32:47.368Z,10.95
2019-05-10T11:34:55.301Z,11.05
2019-05-10T11:37:03.349Z,10.55
2019-05-10T11:39:25.688Z,9.45
2019-05-10T11:41:24.318Z,11.38
2019-05-10T11:43:31.355Z,10.00
2019-05-10T11:45:41.995Z,10.95
2019-05-10T11:47:54.306Z,8.20
2019-05-10T11:49:58.757Z,9.15
2019-05-10T11:52:10.783Z,9.10
2019-05-10T11:54:17.964Z,7.28
2019-05-10T11:56:27.703Z,7.45
2019-05-10T12:00:45.151Z,7.87
2019-05-10T12:03:07.694Z,8.70
2019-05-10T12:05:16.638Z,7.72
2019-05-10T12:07:14.726Z,7.85
2019-05-10T12:09:24.518Z,6.97
2019-05-10T12:11:34.120Z,8.08
2019-05-10T12:13:42.200Z,7.28
2019-05-10T12:15:51.979Z,8.30
2019-05-10T12:18:04.551Z,7.85
2019-05-10T12:20:12.570Z,6.70
2019-05-10T12:22:21.734Z,6.72
2019-05-10T12:24:46.275Z,8.05
2019-05-10T12:26:00.229Z,8.13
2019-05-10T12:28:51.155Z,8.40
2019-05-10T12:31:01.397Z,8.13
2019-05-10T12:33:23.634Z,8.45
2019-05-10T12:35:21.328Z,7.83
2019-05-10T12:37:30.801Z,8.20
2019-05-10T12:39:38.868Z,8.80
2019-05-10T12:41:49.730Z,8.83
2019-05-10T12:44:03.312Z,8.25
2019-05-10T12:46:06.788Z,8.30
2019-05-10T12:48:14.809Z,7.42
2019-05-10T12:50:23.350Z,7.80
2019-05-10T12:52:32.165Z,8.00
2019-05-10T12:54:41.448Z,8.23
2019-05-10T12:56:49.880Z,8.30
2019-05-10T12:58:59.631Z,8.30
2019-05-10T13:01:08.506Z,7.75
2019-05-10T13:03:19.235Z,7.87
2019-05-10T13:05:32.222Z,8.83
2019-05-10T13:07:37.555Z,7.92
2019-05-10T13:09:49.612Z,8.10
2019-05-10T13:12:02.658Z,6.58
2019-05-10T13:14:07.732Z,5.17
2019-05-10T13:16:16.697Z,5.50
2019-05-10T13:18:49.045Z,6.75
2019-05-10T13:20:36.723Z,5.33
2019-05-10T13:22:44.636Z,6.75
2019-05-10T13:24:52.602Z,6.20
2019-05-10T13:27:03.523Z,6.55
2019-05-10T13:29:13.554Z,6.83
2019-05-10T13:31:21.928Z,6.58
2019-05-10T13:33:40.725Z,6.80
2019-05-10T13:35:40.441Z,6.45
2019-05-10T13:37:48.958Z,7.08
2019-05-10T13:39:58.136Z,7.85
2019-05-10T13:42:09.688Z,7.45
2019-05-10T13:44:18.172Z,7.75
2019-05-10T13:46:26.276Z,6.65
2019-05-10T13:48:34.501Z,6.97
2019-05-10T13:50:42.684Z,7.12
2019-05-10T13:52:52.621Z,7.12
2019-05-10T13:55:01.042Z,6.90
2019-05-10T13:57:09.748Z,7.50
2019-05-10T13:59:18.202Z,9.30
2019-05-10T14:01:27.297Z,8.10
2019-05-10T14:03:43.749Z,7.40
2019-05-10T14:05:45.876Z,7.03
2019-05-10T14:07:54.297Z,6.97
2019-05-10T14:10:02.682Z,7.17
2019-05-10T14:12:16.306Z,7.28
2019-05-10T14:14:26.457Z,6.80
2019-05-10T14:16:32.977Z,7.22
2019-05-10T14:18:41.167Z,6.75
2019-05-10T14:20:49.436Z,6.90
2019-05-10T14:22:58.912Z,6.70
2019-05-10T14:25:08.590Z,6.50
2019-05-10T14:27:17.043Z,6.70
2019-05-10T14:29:33.338Z,6.97
2019-05-10T14:31:35.441Z,7.15
2019-05-10T14:33:49.540Z,6.60
2019-05-10T14:35:55.145Z,6.47
2019-05-10T14:38:08.278Z,6.33
2019-05-10T14:40:17.070Z,6.42
2019-05-10T14:42:30.419Z,5.75
2019-05-10T14:44:33.313Z,8.40
2019-05-10T14:46:41.695Z,10.90
2019-05-10T14:48:50.670Z,10.93
2019-05-10T14:51:02.898Z,6.67
2019-05-10T14:53:08.998Z,6.15
2019-05-10T14:55:17.508Z,6.37
2019-05-10T14:57:25.519Z,6.03
2019-05-10T14:59:33.835Z,6.33
2019-05-10T15:01:44.726Z,6.95
2019-05-10T15:03:52.311Z,6.33
2019-05-10T15:06:01.616Z,6.37
2019-05-10T15:08:10.147Z,9.48
2019-05-10T15:10:18.475Z,11.45
2019-05-10T15:12:26.777Z,10.68
2019-05-10T15:14:35.254Z,6.80
2019-05-10T15:16:43.690Z,7.20
2019-05-10T15:18:51.859Z,7.10
2019-05-10T15:21:01.109Z,8.70
2019-05-10T15:23:09.550Z,7.92
2019-05-10T15:25:17.880Z,12.50
2019-05-10T15:27:26.310Z,15.88
2019-05-10T15:29:34.758Z,17.95
2019-05-10T15:31:42.702Z,7.62
2019-05-10T15:33:51.160Z,11.90
2019-05-10T15:35:59.680Z,9.65
2019-05-10T15:38:08.073Z,8.58
2019-05-10T15:40:16.672Z,10.98
2019-05-10T15:42:30.493Z,6.67
2019-05-10T15:44:35.947Z,7.78
2019-05-10T15:46:44.283Z,8.45
2019-05-10T15:48:52.410Z,7.70
2019-05-10T15:51:00.486Z,8.48
2019-05-10T15:53:08.657Z,8.83
2019-05-10T15:55:25.848Z,8.83
2019-05-10T15:57:26.998Z,8.85
2019-05-10T15:59:35.371Z,8.25
2019-05-10T16:01:45.606Z,9.58
2019-05-10T16:03:53.577Z,9.15
2019-05-10T16:06:01.671Z,9.23
2019-05-10T16:08:13.386Z,9.35
2019-05-10T16:10:20.227Z,10.10
2019-05-10T16:12:28.223Z,9.43
2019-05-10T16:14:39.130Z,8.93
2019-05-10T16:16:46.666Z,8.38
2019-05-10T16:18:54.945Z,8.50
2019-05-10T16:21:03.025Z,8.35
2019-05-10T16:23:11.337Z,8.75
2019-05-10T16:25:19.772Z,8.58
2019-05-10T16:27:28.009Z,8.18
2019-05-10T16:29:39.738Z,8.10
2019-05-10T16:31:45.951Z,7.78
2019-05-10T16:33:55.726Z,7.70
2019-05-10T16:36:03.900Z,7.90
2019-05-10T16:38:11.987Z,7.90
2019-05-10T16:40:20.444Z,8.03
2019-05-10T16:42:34.401Z,8.13
2019-05-10T16:44:38.177Z,8.03
2019-05-10T16:46:46.583Z,7.72
2019-05-10T16:48:54.968Z,6.47
2019-05-10T16:51:03.769Z,6.90
2019-05-10T16:53:14.331Z,6.30
2019-05-10T16:55:22.318Z,6.65
2019-05-10T16:57:32.122Z,7.55
2019-05-10T16:59:40.821Z,7.80
2019-05-10T17:01:49.005Z,7.75
2019-05-10T17:04:00.588Z,7.08
2019-05-10T17:06:07.337Z,7.00
2019-05-10T17:08:15.620Z,7.00
2019-05-10T17:10:26.961Z,7.28
2019-05-10T17:12:33.727Z,8.25
2019-05-10T17:14:41.714Z,8.60
2019-05-10T17:16:58.303Z,8.35
2019-05-10T17:18:59.778Z,7.37
2019-05-10T17:21:07.728Z,7.33
2019-05-10T17:23:15.710Z,8.80
2019-05-10T17:25:23.631Z,8.35
2019-05-10T17:27:31.518Z,7.92
2019-05-10T17:29:44.481Z,8.15
2019-05-10T17:31:50.904Z,8.25
2019-05-10T17:33:59.167Z,7.65
2019-05-10T17:36:08.723Z,7.35
2019-05-10T17:38:16.844Z,7.58
2019-05-10T17:40:25.018Z,7.53
2019-05-10T17:42:35.554Z,6.97
2019-05-10T17:44:44.291Z,8.20
2019-05-10T17:46:55.310Z,9.78
2019-05-10T17:49:01.978Z,9.03
2019-05-10T17:51:10.064Z,8.58
2019-05-10T17:53:18.045Z,8.75
2019-05-10T17:55:25.942Z,8.55
2019-05-10T17:57:33.854Z,9.40
2019-05-10T17:59:46.809Z,9.20
2019-05-10T18:01:52.065Z,9.28
2019-05-10T18:03:59.973Z,10.38
2019-05-10T18:06:21.969Z,9.43
2019-05-10T18:08:17.575Z,10.20
2019-05-10T18:10:25.648Z,10.00
2019-05-10T18:12:33.949Z,9.23
2019-05-10T18:14:42.832Z,10.28
2019-05-10T18:16:50.941Z,10.72
2019-05-10T18:18:59.234Z,11.93
2019-05-10T18:21:08.120Z,12.10
2019-05-10T18:23:21.084Z,10.88
2019-05-10T18:25:26.012Z,13.03
2019-05-10T18:27:33.889Z,14.05
2019-05-10T18:29:41.992Z,12.30
2019-05-10T18:31:55.850Z,12.50
2019-05-10T18:33:59.581Z,11.93
2019-05-10T18:36:10.821Z,12.68
2019-05-10T18:38:17.483Z,12.45
2019-05-10T18:40:31.805Z,13.08
2019-05-10T18:42:35.152Z,12.63
2019-05-10T18:44:45.721Z,13.40
2019-05-10T18:46:53.023Z,16.67
2019-05-10T18:49:00.984Z,16.70
2019-05-10T18:51:09.577Z,16.40
2019-05-10T18:53:17.679Z,14.93
2019-05-10T18:55:26.303Z,15.25
2019-05-10T18:57:34.412Z,19.12
2019-05-10T18:59:47.105Z,20.25
2019-05-10T19:01:56.248Z,42.13
2019-05-10T19:04:07.414Z,40.58
2019-05-10T19:06:15.321Z,46.23
2019-05-10T19:08:24.103Z,33.35
2019-05-10T19:10:32.393Z,19.30
2019-05-10T19:12:40.886Z,15.40
2019-05-10T19:14:49.657Z,14.87
2019-05-10T19:16:57.580Z,14.43
2019-05-10T19:19:05.661Z,15.70
2019-05-10T19:21:14.215Z,17.20
2019-05-10T19:23:22.542Z,18.27
2019-05-10T19:25:30.924Z,18.65
2019-05-10T19:27:44.742Z,21.30
2019-05-10T19:29:48.945Z,19.27
2019-05-10T19:31:57.062Z,19.48
2019-05-10T19:34:09.016Z,19.85
2019-05-10T19:36:15.005Z,18.67
2019-05-10T19:38:22.904Z,20.45
2019-05-10T19:40:31.689Z,20.12
2019-05-10T19:42:43.117Z,20.02
2019-05-10T19:44:49.135Z,17.87
2019-05-10T19:46:57.204Z,19.23
2019-05-10T19:49:07.544Z,18.15
2019-05-10T19:51:16.119Z,16.20
2019-05-10T19:53:25.029Z,15.88
2019-05-10T19:55:32.990Z,14.98
2019-05-10T19:57:41.338Z,16.00
2019-05-10T20:02:10.562Z,18.30
2019-05-10T20:04:18.608Z,20.15
2019-05-10T20:06:26.592Z,22.58
2019-05-10T20:08:34.655Z,24.57
2019-05-10T20:10:42.859Z,27.22
2019-05-10T20:12:50.749Z,26.02
2019-05-10T20:14:58.841Z,25.55
2019-05-10T20:17:06.730Z,25.37
2019-05-10T20:19:14.638Z,26.40
2019-05-10T20:21:22.551Z,27.45
2019-05-10T20:23:31.092Z,38.73
2019-05-10T20:25:39.418Z,35.38
2019-05-10T20:27:47.461Z,39.05
2019-05-10T20:29:55.350Z,40.88
2019-05-10T20:32:03.251Z,41.50
2019-05-10T20:34:11.763Z,55.40
2019-05-10T20:36:19.787Z,62.40
2019-05-10T20:38:27.587Z,48.68
2019-05-10T20:40:37.235Z,51.75
2019-05-10T20:42:45.350Z,47.90
2019-05-10T20:45:06.895Z,53.52
2019-05-10T20:47:02.868Z,50.90
2019-05-10T20:49:10.912Z,55.10
2019-05-10T20:51:19.074Z,69.58
2019-05-10T20:53:27.212Z,50.98
2019-05-10T20:55:35.376Z,55.70
2019-05-10T20:57:43.360Z,55.48
2019-05-10T20:59:51.346Z,54.88
2019-05-10T21:01:59.233Z,57.38
2019-05-10T21:04:07.679Z,54.40
2019-05-10T21:06:15.803Z,52.13
2019-05-10T21:08:23.695Z,49.48
2019-05-10T21:10:31.591Z,51.95
2019-05-10T21:12:39.518Z,56.75
2019-05-10T21:14:47.420Z,60.35
2019-05-10T21:16:55.378Z,53.35
2019-05-10T21:19:03.403Z,54.18
2019-05-10T21:21:11.427Z,50.65
2019-05-10T21:23:20.911Z,44.85
2019-05-10T21:25:29.029Z,45.12
2019-05-10T21:27:37.367Z,39.88
2019-05-10T21:29:45.264Z,40.35
2019-05-10T21:31:53.297Z,43.30
2019-05-10T21:34:09.822Z,41.83
2019-05-10T21:36:10.974Z,44.05
2019-05-10T21:38:31.888Z,46.23
2019-05-10T21:40:28.438Z,44.20
2019-05-10T21:42:36.334Z,43.65
2019-05-10T21:44:44.253Z,41.63
2019-05-10T21:46:53.783Z,36.50
2019-05-10T21:49:01.991Z,37.03
2019-05-10T21:51:10.909Z,39.92
2019-05-10T21:53:18.796Z,41.37
2019-05-10T21:55:26.693Z,36.63
2019-05-10T21:57:34.788Z,40.03
2019-05-10T21:59:42.680Z,40.73
2019-05-10T22:01:50.731Z,44.30
2019-05-10T22:03:58.742Z,43.17
2019-05-10T22:06:06.703Z,40.65
2019-05-10T22:08:14.589Z,40.43
2019-05-10T22:10:22.582Z,39.35
2019-05-10T22:12:30.478Z,38.75
2019-05-10T22:14:38.466Z,37.95
2019-05-10T22:16:46.492Z,36.53
2019-05-10T22:19:01.892Z,34.88
2019-05-10T22:21:09.828Z,38.50
2019-05-10T22:23:17.756Z,38.58
2019-05-10T22:25:25.651Z,39.83
2019-05-10T22:27:34.528Z,38.95
2019-05-10T22:29:42.448Z,39.15
2019-05-10T22:31:50.339Z,48.20
2019-05-10T22:33:58.304Z,66.30
2019-05-10T22:36:06.229Z,52.43
2019-05-10T22:38:14.169Z,53.98
2019-05-10T22:40:22.483Z,45.50
2019-05-10T22:42:30.887Z,44.55
2019-05-10T22:44:38.773Z,52.60
2019-05-10T22:46:46.815Z,46.18
2019-05-10T22:48:54.733Z,44.03
2019-05-10T22:51:03.695Z,45.60
2019-05-10T22:53:11.590Z,51.48
2019-05-10T22:55:19.508Z,52.00
2019-05-10T22:57:27.507Z,55.40
2019-05-10T22:59:35.464Z,53.52
2019-05-10T23:01:43.685Z,54.93
2019-05-10T23:03:51.576Z,53.48
2019-05-10T23:05:59.473Z,51.83
2019-05-10T23:08:07.469Z,49.38
2019-05-10T23:10:15.628Z,46.65
2019-05-10T23:12:23.520Z,46.70
2019-05-10T23:14:31.441Z,46.50
2019-05-10T23:16:39.327Z,46.50
2019-05-10T23:18:47.286Z,36.10
2019-05-10T23:20:55.220Z,43.73
2019-05-10T23:23:03.145Z,42.83
2019-05-10T23:25:11.107Z,42.33
2019-05-10T23:27:19.015Z,41.63
2019-05-10T23:29:26.917Z,39.78
2019-05-10T23:31:35.573Z,42.55
2019-05-10T23:33:43.925Z,45.40
2019-05-10T23:35:51.912Z,45.17
2019-05-10T23:38:01.008Z,42.70
2019-05-10T23:40:09.583Z,42.70
2019-05-10T23:42:20.513Z,45.05
2019-05-10T23:44:28.400Z,43.35
2019-05-10T23:46:36.337Z,30.35
2019-05-10T23:48:45.867Z,27.05
2019-05-10T23:50:54.760Z,24.00
2019-05-10T23:53:02.733Z,23.55
2019-05-10T23:55:10.895Z,23.27
2019-05-10T23:57:18.850Z,23.70
2019-05-10T23:59:26.763Z,22.55
